createdAt,value
2022-11-14T00:01:43.632Z,45.25
2022-11-14T00:07:10.577Z,45.86
2022-11-14T00:12:38.223Z,45.24
2022-11-14T00:17:58.651Z,47.17
2022-11-14T00:23:21.436Z,45.74
2022-11-14T00:28:42.457Z,45.97
2022-11-14T00:34:02.889Z,46.77
2022-11-14T00:39:23.384Z,46.33
2022-11-14T00:44:43.730Z,46.46
2022-11-14T00:50:05.267Z,46.19
2022-11-14T00:55:25.928Z,47.50
2022-11-14T01:00:46.410Z,46.02
2022-11-14T01:06:09.067Z,45.80
2022-11-14T01:11:29.536Z,46.52
2022-11-14T01:16:49.978Z,46.13
2022-11-14T01:22:10.610Z,47.44
2022-11-14T01:27:32.137Z,47.28
2022-11-14T01:32:52.616Z,47.17
2022-11-14T01:38:14.941Z,47.93
2022-11-14T01:43:38.766Z,47.34
2022-11-14T01:49:08.808Z,48.82
2022-11-14T01:54:37.121Z,50.89
2022-11-14T02:00:02.176Z,50.37
2022-11-14T02:05:23.424Z,50.00
2022-11-14T02:10:43.707Z,49.81
2022-11-14T02:16:04.999Z,51.78
2022-11-14T02:21:25.534Z,51.45
2022-11-14T02:26:45.872Z,52.86
2022-11-14T02:32:10.705Z,52.87
2022-11-14T02:37:31.400Z,53.38
2022-11-14T02:42:51.959Z,53.27
2022-11-14T02:48:12.552Z,55.21
2022-11-14T02:53:32.855Z,54.70
2022-11-14T02:58:53.008Z,53.56
2022-11-14T03:04:13.515Z,53.07
2022-11-14T03:09:33.780Z,53.96
2022-11-14T03:14:54.331Z,53.23
2022-11-14T03:20:14.920Z,52.55
2022-11-14T03:25:35.279Z,52.62
2022-11-14T03:30:55.921Z,52.62
2022-11-14T03:36:16.503Z,53.00
2022-11-14T03:41:36.785Z,52.56
2022-11-14T03:46:57.485Z,52.73
2022-11-14T03:52:17.662Z,53.66
2022-11-14T03:57:38.158Z,54.67
2022-11-14T04:02:58.758Z,53.83
2022-11-14T04:08:19.231Z,53.64
2022-11-14T04:13:39.679Z,53.36
2022-11-14T04:18:59.984Z,53.23
2022-11-14T04:24:20.408Z,55.23
2022-11-14T04:29:40.678Z,55.24
2022-11-14T04:35:01.183Z,54.46
2022-11-14T04:40:21.892Z,54.49
2022-11-14T04:45:42.199Z,53.20
2022-11-14T04:51:02.611Z,53.55
2022-11-14T04:56:25.332Z,54.04
2022-11-14T05:01:52.033Z,53.33
2022-11-14T05:07:18.887Z,53.64
2022-11-14T05:12:39.295Z,53.67
2022-11-14T05:17:59.702Z,54.32
2022-11-14T05:23:22.519Z,53.71
2022-11-14T05:28:43.426Z,52.60
2022-11-14T05:34:08.709Z,54.20
2022-11-14T05:39:29.180Z,53.84
2022-11-14T05:44:50.319Z,53.07
2022-11-14T05:50:10.663Z,53.10
2022-11-14T05:55:30.881Z,53.20
2022-11-14T06:00:54.318Z,52.83
2022-11-14T06:06:18.415Z,52.92
2022-11-14T06:11:39.003Z,53.33
2022-11-14T06:16:59.436Z,53.39
2022-11-14T06:22:20.148Z,53.44
2022-11-14T06:27:40.707Z,54.06
2022-11-14T06:33:01.308Z,53.61
2022-11-14T06:38:21.720Z,52.42
2022-11-14T06:43:48.000Z,51.76
2022-11-14T06:49:08.471Z,52.14
2022-11-14T06:54:29.176Z,51.05
2022-11-14T06:59:49.787Z,49.81
2022-11-14T07:05:10.410Z,50.67
2022-11-14T07:10:31.152Z,52.03
2022-11-14T07:15:55.214Z,50.91
2022-11-14T07:21:15.455Z,51.81
2022-11-14T07:26:36.143Z,51.43
2022-11-14T07:31:56.800Z,52.98
2022-11-14T07:37:17.142Z,52.98
2022-11-14T07:42:37.544Z,51.82
2022-11-14T07:47:59.080Z,48.21
2022-11-14T07:53:19.594Z,48.21
2022-11-14T07:58:41.512Z,48.43
2022-11-14T08:04:02.068Z,47.25
2022-11-14T08:09:23.370Z,47.76
2022-11-14T08:14:44.034Z,49.18
2022-11-14T08:20:08.323Z,49.53
2022-11-14T08:25:29.016Z,49.56
2022-11-14T08:30:50.987Z,49.38
2022-11-14T08:36:15.040Z,49.24
2022-11-14T08:41:35.336Z,51.01
2022-11-14T08:46:55.948Z,47.60
2022-11-14T08:52:16.966Z,47.98
2022-11-14T08:57:37.932Z,46.29
2022-11-14T09:02:58.389Z,48.24
2022-11-14T09:08:19.190Z,48.77
2022-11-14T09:13:39.678Z,48.39
2022-11-14T09:19:00.321Z,47.79
2022-11-14T09:24:21.770Z,48.32
2022-11-14T09:29:42.162Z,47.15
2022-11-14T09:35:03.195Z,46.73
2022-11-14T09:40:23.636Z,47.28
2022-11-14T09:45:50.749Z,48.57
2022-11-14T09:51:18.360Z,46.22
2022-11-14T09:56:39.076Z,47.25
2022-11-14T10:02:03.321Z,46.70
2022-11-14T10:07:42.701Z,46.29
2022-11-14T10:13:31.058Z,45.14
2022-11-14T10:19:12.498Z,44.74
2022-11-14T10:24:44.858Z,43.21
2022-11-14T10:30:18.711Z,44.18
2022-11-14T10:35:56.597Z,40.80
2022-11-14T10:41:34.569Z,40.64
2022-11-14T10:47:02.236Z,40.81
2022-11-14T10:52:38.235Z,39.61
2022-11-14T10:58:14.716Z,41.78
2022-11-14T11:03:43.846Z,41.36
2022-11-14T11:09:45.139Z,43.10
2022-11-14T11:15:17.603Z,42.49
2022-11-14T11:20:41.174Z,42.10
2022-11-14T11:26:07.816Z,39.33
2022-11-14T11:31:28.402Z,38.76
2022-11-14T11:36:55.415Z,37.96
2022-11-14T11:43:31.834Z,37.68
2022-11-14T11:48:23.290Z,37.02
2022-11-14T11:53:48.679Z,34.59
2022-11-14T11:59:35.363Z,35.66
2022-11-14T12:04:58.402Z,35.02
2022-11-14T12:10:26.009Z,36.85
2022-11-14T12:16:16.072Z,36.45
2022-11-14T12:21:58.713Z,35.82
2022-11-14T12:27:39.871Z,34.29
2022-11-14T12:33:03.676Z,34.73
2022-11-14T12:38:24.644Z,34.43
2022-11-14T12:43:45.201Z,36.41
2022-11-14T12:49:39.515Z,37.40
2022-11-14T12:55:00.446Z,39.20
2022-11-14T13:00:20.932Z,37.97
2022-11-14T13:06:19.592Z,37.53
2022-11-14T13:12:03.721Z,37.79
2022-11-14T13:17:45.342Z,37.49
2022-11-14T13:23:06.206Z,37.05
2022-11-14T13:28:38.997Z,36.17
2022-11-14T13:34:00.240Z,34.57
2022-11-14T13:39:26.413Z,34.20
2022-11-14T13:44:46.730Z,35.80
2022-11-14T13:50:24.685Z,34.93
2022-11-14T13:56:04.688Z,33.99
2022-11-14T14:01:40.271Z,32.38
2022-11-14T14:07:26.616Z,32.93
2022-11-14T14:12:47.474Z,32.23
2022-11-14T14:18:32.802Z,30.01
2022-11-14T14:24:06.806Z,30.22
2022-11-14T14:29:52.580Z,30.83
2022-11-14T14:35:27.997Z,32.09
2022-11-14T14:40:48.908Z,30.58
2022-11-14T14:46:09.452Z,30.37
2022-11-14T14:51:36.720Z,31.05
2022-11-14T14:57:03.013Z,31.49
2022-11-14T15:02:25.593Z,31.17
2022-11-14T15:07:47.384Z,30.81
2022-11-14T15:13:11.532Z,30.29
2022-11-14T15:18:33.390Z,30.90
2022-11-14T15:24:18.383Z,30.99
2022-11-14T15:29:51.654Z,31.73
2022-11-14T15:35:25.651Z,32.21
2022-11-14T15:41:06.176Z,31.15
2022-11-14T15:46:42.653Z,30.31
2022-11-14T15:52:03.664Z,32.00
2022-11-14T15:57:24.460Z,32.65
2022-11-14T16:02:54.760Z,33.42
2022-11-14T16:08:15.316Z,32.22
2022-11-14T16:13:36.540Z,32.41
2022-11-14T16:18:56.875Z,32.66
2022-11-14T16:24:23.136Z,32.06
2022-11-14T16:29:43.771Z,31.51
2022-11-14T16:35:04.276Z,31.70
2022-11-14T16:40:27.759Z,31.78
2022-11-14T16:45:48.260Z,32.16
2022-11-14T16:51:32.949Z,30.99
2022-11-14T16:56:49.833Z,30.67
2022-11-14T17:02:17.955Z,31.06
2022-11-14T17:07:38.968Z,30.91
2022-11-14T17:12:59.834Z,30.09
2022-11-14T17:18:20.234Z,30.63
2022-11-14T17:23:40.800Z,30.81
2022-11-14T17:29:02.384Z,30.41
2022-11-14T17:34:22.880Z,29.83
2022-11-14T17:39:43.559Z,30.11
2022-11-14T17:45:04.353Z,29.95
2022-11-14T17:50:25.103Z,30.59
2022-11-14T17:55:45.975Z,30.57
2022-11-14T18:01:15.460Z,30.66
2022-11-14T18:06:36.040Z,30.25
2022-11-14T18:11:57.546Z,31.29
2022-11-14T18:17:18.327Z,30.51
2022-11-14T18:22:38.925Z,30.78
2022-11-14T18:27:59.418Z,30.78
2022-11-14T18:33:20.029Z,31.29
2022-11-14T18:38:41.368Z,31.60
2022-11-14T18:44:03.734Z,31.51
2022-11-14T18:49:23.979Z,31.22
2022-11-14T18:54:44.158Z,33.05
2022-11-14T19:00:05.335Z,32.01
2022-11-14T19:05:25.709Z,31.82
2022-11-14T19:10:47.665Z,31.25
2022-11-14T19:16:08.553Z,30.93
2022-11-14T19:21:30.110Z,30.54
2022-11-14T19:26:50.311Z,31.77
2022-11-14T19:32:10.991Z,32.47
2022-11-14T19:37:31.526Z,31.03
2022-11-14T19:42:56.151Z,30.80
2022-11-14T19:48:17.425Z,31.38
2022-11-14T19:53:40.043Z,30.00
2022-11-14T19:59:02.184Z,29.68
2022-11-14T20:04:24.550Z,29.97
2022-11-14T20:09:45.133Z,31.51
2022-11-14T20:15:06.399Z,34.02
2022-11-14T20:20:26.974Z,31.57
2022-11-14T20:25:52.775Z,32.04
2022-11-14T20:31:16.282Z,34.27
2022-11-14T20:36:57.012Z,32.48
2022-11-14T20:42:16.868Z,32.60
2022-11-14T20:47:37.177Z,33.01
2022-11-14T20:52:58.023Z,32.99
2022-11-14T20:58:18.423Z,32.47
2022-11-14T21:03:39.443Z,31.10
2022-11-14T21:08:59.957Z,32.38
2022-11-14T21:14:20.095Z,31.94
2022-11-14T21:19:40.631Z,33.88
2022-11-14T21:25:01.821Z,34.78
2022-11-14T21:30:22.491Z,33.67
2022-11-14T21:35:42.552Z,36.19
2022-11-14T21:41:04.533Z,35.68
2022-11-14T21:46:25.981Z,36.16
2022-11-14T21:51:48.264Z,34.17
2022-11-14T21:57:10.253Z,33.99
2022-11-14T22:02:49.586Z,36.04
2022-11-14T22:08:10.135Z,35.45
2022-11-14T22:13:31.627Z,36.32
2022-11-14T22:18:53.027Z,36.77
2022-11-14T22:24:13.199Z,36.03
2022-11-14T22:29:33.791Z,36.16
2022-11-14T22:34:54.547Z,36.02
2022-11-14T22:40:15.350Z,37.24
2022-11-14T22:45:35.875Z,37.37
2022-11-14T22:51:08.279Z,36.62
2022-11-14T22:56:29.671Z,35.65
2022-11-14T23:01:50.464Z,36.29
2022-11-14T23:07:11.370Z,36.68
2022-11-14T23:12:31.949Z,36.21
2022-11-14T23:17:52.412Z,36.40
2022-11-14T23:23:15.403Z,35.51
2022-11-14T23:28:36.539Z,37.64
2022-11-14T23:34:04.479Z,36.20
2022-11-14T23:39:31.912Z,39.06
2022-11-14T23:44:52.496Z,39.49
2022-11-14T23:50:13.000Z,39.88
2022-11-14T23:55:33.825Z,39.25
